Aviation Digital Data Service (ADDS)

Output produced by TAFs form (0101 UTC 22 September 2017)
found at http://www.aviationweather.gov/adds/tafs/
 
METAR text: RJFY 220004Z 07008KT 5000 -SHRA BR FEW005 SCT008 OVC015 FEW015CB 22/21 Q1009 RMK 2ST005 3ST008 8CU015 1CB015 A2982 CB 3KM E MOV E VIS VRB
Conditions at: RJFY (KANOYA (JMSDF) , JP) observed 0004 UTC 22 September 2017
Temperature: 22.0°C (72°F)
Dewpoint: 21.0°C (70°F) [RH = 94%]
Pressure (altimeter): 29.79 inches Hg (1009.0 mb)
Winds: from the ENE (70 degrees) at 9 MPH (8 knots; 4.2 m/s)
Visibility: 3 miles (5 km)
Ceiling: 1500 feet AGL
Clouds: few clouds at 500 feet AGL
scattered clouds at 800 feet AGL
overcast cloud deck at 1500 feet AGL
few clouds at 1500 feet AGL
Weather: -SHRA BR  (light rain showers, mist)